Terminal Aerodrome Forecast
Issued by NWS

Home | Current Version | Previous Version | Text Only | Print | Product List | Glossary On
Versions: 1 2 3 4 5 6 7 8 9 10 11 12 13 14 15 16 17 18 19 20 21 22 23 24 25 26
000
FTUS43 KLSX 241700
TAFCPS
TAF
KCPS 241739Z 2418/2518 12013G22KT 4SM BR OVC007
      TEMPO 2418/2419 -SHRA
     FM242100 12014G23KT P6SM OVC015
     FM250300 15013G22KT 5SM -SHRA OVC015
      TEMPO 2503/2505 2SM TSRA OVC006CB
     FM250600 24013G22KT P6SM BKN015
     FM250900 26010KT 5SM BR SCT015
     FM251500 23005KT P6SM SCT250=

USA.gov is the U.S. government's official web portal to all federal, state and local government web resources and services.